createdAt,value
2023-02-11T00:00:04.202Z,74.90
2023-02-11T00:05:12.352Z,64.70
2023-02-11T00:10:19.761Z,83.90
2023-02-11T00:15:27.446Z,84.30
2023-02-11T00:20:34.501Z,84.20
2023-02-11T00:25:44.005Z,70.10
2023-02-11T00:30:58.713Z,61.30
2023-02-11T00:36:09.399Z,66.40
2023-02-11T00:41:17.857Z,77.80
2023-02-11T00:46:25.516Z,71.70
2023-02-11T00:51:32.682Z,70.40
2023-02-11T00:56:39.887Z,64.90
2023-02-11T01:01:47.155Z,67.50
2023-02-11T01:06:54.372Z,73.50
2023-02-11T01:12:01.701Z,70.90
2023-02-11T01:17:09.108Z,53.90
2023-02-11T01:22:16.251Z,59.00
2023-02-11T01:27:23.747Z,65.00
2023-02-11T01:32:30.874Z,80.00
2023-02-11T01:37:38.198Z,53.20
2023-02-11T01:42:48.375Z,64.60
2023-02-11T01:47:57.452Z,61.00
2023-02-11T01:53:19.180Z,66.10
2023-02-11T01:58:27.091Z,52.20
2023-02-11T02:03:39.075Z,62.00
2023-02-11T02:08:52.700Z,74.80
2023-02-11T02:13:59.882Z,73.70
2023-02-11T02:19:35.248Z,64.20
2023-02-11T02:24:57.987Z,60.20
2023-02-11T02:30:27.767Z,61.80
2023-02-11T02:35:44.754Z,58.00
2023-02-11T02:40:55.927Z,63.40
2023-02-11T02:46:16.016Z,64.40
2023-02-11T02:51:48.638Z,70.50
2023-02-11T02:57:01.216Z,65.00
2023-02-11T03:02:16.552Z,65.60
2023-02-11T03:07:33.685Z,63.80
2023-02-11T03:12:43.565Z,59.70
2023-02-11T03:17:53.644Z,73.20
2023-02-11T03:23:12.930Z,66.00
2023-02-11T03:28:31.174Z,64.40
2023-02-11T03:38:51.869Z,63.90
2023-02-11T03:44:00.858Z,65.10
2023-02-11T03:49:10.999Z,62.20
2023-02-11T03:54:21.561Z,71.70
2023-02-11T03:59:28.857Z,69.00
2023-02-11T04:04:36.019Z,78.20
2023-02-11T04:09:43.154Z,71.10
2023-02-11T04:14:50.375Z,70.00
2023-02-11T04:19:57.462Z,68.90
2023-02-11T04:25:05.149Z,82.80
2023-02-11T04:30:15.481Z,80.70
2023-02-11T04:35:22.699Z,82.30
2023-02-11T04:40:29.908Z,76.30
2023-02-11T04:45:37.555Z,90.20
2023-02-11T04:50:44.759Z,84.90
2023-02-11T04:55:53.199Z,82.20
2023-02-11T05:01:09.062Z,81.10
2023-02-11T05:06:16.614Z,80.30
2023-02-11T05:11:25.952Z,78.50
2023-02-11T05:16:33.260Z,80.30
2023-02-11T05:21:50.322Z,73.30
2023-02-11T05:27:04.560Z,72.10
2023-02-11T05:32:12.331Z,82.10
2023-02-11T05:37:20.164Z,71.20
2023-02-11T05:42:27.469Z,86.90
2023-02-11T05:47:34.761Z,91.10
2023-02-11T05:52:41.855Z,79.80
2023-02-11T05:57:49.193Z,82.10
2023-02-11T06:02:56.407Z,76.00
2023-02-11T06:08:03.646Z,88.70
2023-02-11T06:13:10.837Z,90.30
2023-02-11T06:18:18.049Z,102.30
2023-02-11T06:23:25.169Z,106.30
2023-02-11T06:28:40.004Z,88.70
2023-02-11T06:33:57.878Z,84.60
2023-02-11T06:39:05.200Z,88.40
2023-02-11T06:44:12.367Z,88.80
2023-02-11T06:49:19.616Z,92.80
2023-02-11T06:54:26.780Z,90.80
2023-02-11T06:59:33.974Z,87.60
2023-02-11T07:04:41.134Z,90.50
2023-02-11T07:09:48.334Z,82.70
2023-02-11T07:14:57.128Z,82.80
2023-02-11T07:20:04.824Z,92.70
2023-02-11T07:25:12.168Z,93.40
2023-02-11T07:30:19.622Z,85.80
2023-02-11T07:35:26.835Z,93.90
2023-02-11T07:40:34.031Z,85.00
2023-02-11T07:45:42.685Z,86.00
2023-02-11T07:50:50.638Z,69.90
2023-02-11T07:55:57.785Z,66.50
2023-02-11T08:01:06.051Z,95.40
2023-02-11T08:06:18.233Z,77.60
2023-02-11T08:11:28.170Z,82.20
2023-02-11T08:16:38.893Z,71.10
2023-02-11T08:21:47.230Z,67.00
2023-02-11T08:26:54.545Z,62.00
2023-02-11T08:32:01.683Z,83.40
2023-02-11T08:37:09.211Z,67.60
2023-02-11T08:42:16.868Z,65.60
2023-02-11T08:47:24.050Z,66.80
2023-02-11T08:52:31.276Z,70.70
2023-02-11T08:57:38.475Z,71.60
2023-02-11T09:02:45.554Z,71.30
2023-02-11T09:07:52.666Z,92.10
2023-02-11T09:12:59.818Z,75.70
2023-02-11T09:18:07.609Z,71.50
2023-02-11T09:23:16.465Z,69.00
2023-02-11T09:28:25.659Z,64.80
2023-02-11T09:33:32.955Z,68.80
2023-02-11T09:38:40.160Z,86.60
2023-02-11T09:43:49.524Z,86.50
2023-02-11T09:48:57.906Z,83.10
2023-02-11T09:54:13.304Z,78.40
2023-02-11T09:59:20.539Z,60.10
2023-02-11T10:04:45.959Z,70.30
2023-02-11T10:10:15.604Z,67.20
2023-02-11T10:15:29.372Z,62.10
2023-02-11T10:20:47.847Z,64.10
2023-02-11T10:36:14.918Z,54.10
2023-02-11T10:41:27.664Z,64.70
2023-02-11T10:46:40.332Z,63.80
2023-02-11T10:51:47.658Z,54.70
2023-02-11T10:57:02.034Z,59.70
2023-02-11T11:02:24.815Z,51.90
2023-02-11T11:07:35.391Z,55.40
2023-02-11T11:12:51.056Z,56.60
2023-02-11T11:23:29.745Z,53.80
2023-02-11T11:28:40.940Z,56.40
2023-02-11T11:33:49.532Z,58.40
2023-02-11T11:39:00.098Z,51.70
2023-02-11T11:44:25.617Z,51.50
2023-02-11T11:49:37.724Z,51.20
2023-02-11T11:54:49.025Z,49.00
2023-02-11T11:59:56.606Z,52.10
2023-02-11T12:05:13.046Z,46.30
2023-02-11T12:10:47.705Z,39.40
2023-02-11T12:16:10.043Z,38.70
2023-02-11T12:21:30.668Z,40.50
2023-02-11T12:26:45.793Z,35.50
2023-02-11T12:32:02.867Z,43.00
2023-02-11T12:37:20.329Z,34.60
2023-02-11T12:43:04.400Z,35.20
2023-02-11T12:48:35.714Z,28.50
2023-02-11T12:54:01.402Z,29.20
2023-02-11T12:59:14.830Z,25.10
2023-02-11T13:04:27.228Z,21.10
2023-02-11T13:09:42.288Z,20.50
2023-02-11T13:14:53.848Z,17.00
2023-02-11T13:20:09.337Z,18.50
2023-02-11T13:25:30.823Z,18.00
2023-02-11T13:30:47.140Z,17.00
2023-02-11T13:36:18.504Z,24.70
2023-02-11T13:41:30.854Z,19.60
2023-02-11T13:46:57.382Z,17.00
2023-02-11T13:52:06.834Z,21.90
2023-02-11T13:57:30.658Z,18.80
2023-02-11T14:02:55.834Z,17.40
2023-02-11T14:08:37.682Z,19.60
2023-02-11T14:14:05.029Z,13.60
2023-02-11T14:19:12.446Z,19.20
2023-02-11T14:24:48.241Z,13.80
2023-02-11T14:30:18.323Z,15.90
2023-02-11T14:35:33.513Z,18.00
2023-02-11T14:40:47.874Z,14.00
2023-02-11T14:45:57.731Z,19.20
2023-02-11T14:51:08.231Z,15.90
2023-02-11T14:56:22.892Z,19.30
2023-02-11T15:01:34.165Z,17.00
2023-02-11T15:06:44.062Z,15.50
2023-02-11T15:11:52.820Z,16.40
2023-02-11T15:17:02.730Z,20.80
2023-02-11T15:22:20.263Z,19.40
2023-02-11T15:27:27.589Z,16.50
2023-02-11T15:32:36.823Z,18.20
2023-02-11T15:37:44.965Z,19.80
2023-02-11T15:48:14.560Z,20.50
2023-02-11T15:53:28.600Z,18.50
2023-02-11T15:58:42.048Z,16.60
2023-02-11T16:03:52.912Z,23.50
2023-02-11T16:09:06.200Z,21.00
2023-02-11T16:14:29.598Z,21.00
2023-02-11T16:19:44.125Z,27.10
2023-02-11T16:24:56.740Z,18.60
2023-02-11T16:30:05.779Z,14.40
2023-02-11T16:35:15.506Z,21.50
2023-02-11T16:40:23.853Z,21.10
2023-02-11T16:45:31.872Z,21.10
2023-02-11T16:55:44.600Z,29.80
2023-02-11T17:00:52.207Z,25.90
2023-02-11T17:06:03.123Z,27.80
2023-02-11T17:11:10.470Z,23.30
2023-02-11T17:16:22.920Z,23.10
2023-02-11T17:21:31.636Z,22.70
2023-02-11T17:26:39.514Z,25.80
2023-02-11T17:31:49.184Z,36.60
2023-02-11T17:36:58.031Z,26.30
2023-02-11T17:42:06.234Z,36.30
2023-02-11T17:47:13.528Z,24.00
2023-02-11T17:52:21.717Z,25.30
2023-02-11T17:57:28.937Z,33.10
2023-02-11T18:02:36.145Z,26.00
2023-02-11T18:07:43.250Z,25.90
2023-02-11T18:12:50.477Z,21.30
2023-02-11T18:17:58.004Z,32.80
2023-02-11T18:23:05.193Z,28.00
2023-02-11T18:28:12.417Z,39.20
2023-02-11T18:33:20.319Z,37.20
2023-02-11T18:38:27.676Z,29.50
2023-02-11T18:43:35.394Z,26.60
2023-02-11T18:48:44.907Z,48.30
2023-02-11T18:53:52.172Z,36.10
2023-02-11T18:59:01.559Z,36.10
2023-02-11T19:04:12.339Z,42.90
2023-02-11T19:09:21.922Z,41.50
2023-02-11T19:14:31.628Z,29.80
2023-02-11T19:19:39.270Z,39.90
2023-02-11T19:24:46.461Z,36.10
2023-02-11T19:29:53.686Z,44.40
2023-02-11T19:35:00.824Z,44.70
2023-02-11T19:40:10.046Z,42.90
2023-02-11T19:45:17.614Z,42.90
2023-02-11T19:50:25.419Z,49.90
2023-02-11T19:55:35.633Z,51.00
2023-02-11T20:00:43.939Z,48.60
2023-02-11T20:05:51.522Z,42.90
2023-02-11T20:11:05.267Z,55.50
2023-02-11T20:16:16.888Z,53.00
2023-02-11T20:21:26.497Z,50.50
2023-02-11T20:26:35.504Z,43.80
2023-02-11T20:31:44.535Z,49.60
2023-02-11T20:36:53.009Z,64.20
2023-02-11T20:42:00.725Z,47.60
2023-02-11T20:52:16.481Z,42.10
2023-02-11T20:57:24.145Z,52.10
2023-02-11T21:02:32.058Z,50.10
2023-02-11T21:07:40.697Z,52.10
2023-02-11T21:12:50.051Z,54.20
2023-02-11T21:18:00.742Z,33.90
2023-02-11T21:23:09.463Z,28.30
2023-02-11T21:28:18.710Z,32.20
2023-02-11T21:33:30.373Z,25.40
2023-02-11T21:38:41.117Z,23.80
2023-02-11T21:43:48.667Z,20.20
2023-02-11T21:48:56.227Z,25.90
2023-02-11T21:54:05.924Z,13.30
2023-02-11T21:59:15.772Z,23.90
2023-02-11T22:04:27.612Z,20.60
2023-02-11T22:09:35.366Z,27.80
2023-02-11T22:14:42.971Z,30.20
2023-02-11T22:19:50.389Z,20.70
2023-02-11T22:25:00.455Z,20.20
2023-02-11T22:30:10.279Z,19.40
2023-02-11T22:35:18.726Z,24.60
2023-02-11T22:40:26.209Z,13.90
2023-02-11T22:45:36.930Z,12.70
2023-02-11T22:50:44.363Z,9.30
2023-02-11T22:55:51.442Z,12.90
2023-02-11T23:00:58.593Z,15.60
2023-02-11T23:06:06.222Z,17.00
2023-02-11T23:11:15.875Z,11.90
2023-02-11T23:16:24.488Z,13.40
2023-02-11T23:21:34.445Z,14.80
2023-02-11T23:26:42.327Z,12.40
2023-02-11T23:31:50.015Z,9.70
2023-02-11T23:36:59.433Z,17.50
2023-02-11T23:42:06.953Z,12.60
2023-02-11T23:47:14.061Z,18.40
2023-02-11T23:52:21.295Z,17.80
2023-02-11T23:57:28.424Z,13.00
